Burnleys, VA

6:00 PM EDT on June 03, 2015 (GMT -0400)
The Vineyards | | Change Station
CLOSE
Current Station
Personal Weather Station
Location: Barboursville, VA
Elevation: 561 ft
Nearby Weather Stations

Elev 561 ft 38.19 °N, 78.29 °W | Updated 7 seconds ago

Rain
Rain
58.0 °F
Feels Like 58.0 °F
N
5.0
Wind Variable Wind from NE
Gusts 6.0 mph

Today
High -- | Low -- °F
--% Chance of Precip.
Yesterday
High -- | Low -- °F
Precip. -- in
5:51 AM 8:31 PM
Full, 98% visible
Pressure 30.13 in
Visibility 2.0 miles
Clouds Mostly Cloudy 600 ft
Mostly Cloudy 1000 ft
Overcast 1500 ft
Dew Point 57 °F
Humidity 97%
Rainfall 0.15 in
Snow Depth Not available.
UV 1 out of 12
Pollen .70 out of 12
Air Quality Not available.
Flu Activity Sporadic
METAR KCHO 032153Z 04009KT 2SM -RA BR BKN006 BKN010 OVC015 15/13 A3014 RMK AO2 SLP201 P0001 T01500133

More Conditions Fewer Conditions

Pressure 30.13 in
Visibility 2.0 miles
Clouds Mostly Cloudy 600 ft
Mostly Cloudy 1000 ft
Overcast 1500 ft
Dew Point 57 °F
Humidity 97%
Rainfall 0.15 in
Snow Depth Not available.
UV 1 out of 12
Pollen .70 out of 12
Air Quality Not available.
Flu Activity Sporadic
METAR KCHO 032153Z 04009KT 2SM -RA BR BKN006 BKN010 OVC015 15/13 A3014 RMK AO2 SLP201 P0001 T01500133

More Conditions Fewer Conditions

10-Day Weather Forecast

×

Almanac

Astronomy

Jun. 03, 2015 Rise Set
Actual Time
Civil Twilight
Nautical Twilight
Astronomical Twilight
Moon
Length of Visible Light
Length of Day
Tomorrow will be .
, % of the Moon is Illuminated

Today's Extremes

State Highs State Lows

Community

WunderPhotos

Upload Photos

1,826,291 photos uploaded!

WunderBlogs® & News

Nearby

Air Quality

  Air Quality AQ Index Pollutant
Not available.

Snow Depth

Station Depth Elevation

Earthquake Activity

City Distance Mag. Time & Date
Minimum magnitude displayed is 2.5.

Coastal Water Temperatures

Place Temperature

Stations

Nearby Weather Stations

Station Location Temp. Windchill Dew Point Humidity Wind Precip. Elev Updated Type